Time;durP1;ratioP1;P1;durP2;ratioP2;P2;SDS_P1;SDS_P2;PMS_P1;PMS_P2;Temp;Humidity;BMP_temperature;BMP_pressure;BME280_temperature;BME280_humidity;BME280_pressure;Samples;Min_cycle;Max_cycle;Signal;HPM_P1;HPM_P2
2021/12/29 19:39:55;;;;;;;;;;;;;;;;;;2120169;27;1744;-75
2021/12/29 19:40:59;;;;;;;;;;;;;;;;;;2116955;27;1977;-75
2021/12/29 19:42:49;;;;;;;;;;;;;;;;;;2072739;28;1840;-75
2021/12/29 19:43:50;;;;;;;;;;;;;;;;;;2066884;28;1925;-75
2021/12/29 19:44:51;;;;;;;;;;;;;;;;;;2070612;28;1947;-75
2021/12/29 19:45:53;;;;;;;;;;;;;;;;;;2069465;28;1575;-76
2021/12/29 19:47:23;;;;;;;;;;;;;;;;;;2113689;27;1668;-77
2021/12/29 19:48:49;;;;;;;;;;;;;;;;;;2105239;27;1398;-76
2021/12/29 19:49:50;;;;;;;;;;;;;;;;;;2109268;27;2058;-75
2021/12/29 19:50:53;;;;;;;;;;;;;;;;;;2099441;27;9066;-75
2021/12/29 19:51:53;;;;;;;;;;;;;;;;;;2108865;28;1511;-76
2021/12/29 19:53:29;;;;;;;;;;;;;;;;;;2047948;27;7352;-77
2021/12/29 19:54:54;;;;;;;;;;;;;;;;;;2119821;27;1352;-76
2021/12/29 19:55:56;;;;;;;;;;;;;;;;;;2120624;27;1334;-77
2021/12/29 19:56:57;;;;;;;;;;;;;;;;;;2121440;27;1321;-76
2021/12/29 19:57:59;;;;;;;;;;;;;;;;;;2120689;28;1658;-76
2021/12/29 19:58:59;;;;;;;;;;;;;;;;;;2118574;28;1513;-73
2021/12/29 20:00:01;;;;;;;;;;;;;;;;;;2121174;27;1296;-74
2021/12/29 20:01:02;;;;;;;;;;;;;;;;;;2121334;27;897;-75
2021/12/29 20:02:04;;;;;;;;;;;;;;;;;;2121115;27;1571;-73
2021/12/29 20:03:05;;;;;;;;;;;;;;;;;;2122024;27;768;-73
2021/12/29 20:04:07;;;;;;;;;;;;;;;;;;2121400;27;1459;-74
2021/12/29 20:05:12;;;;;;;;;;;;;;;;;;2117927;28;1670;-74
2021/12/29 20:06:14;;;;;;;;;;;;;;;;;;2119676;27;1234;-77
2021/12/29 20:07:15;;;;;;;;;;;;;;;;;;2121914;27;1370;-77
2021/12/29 20:08:17;;;;;;;;;;;;;;;;;;2122220;27;818;-76
2021/12/29 20:09:18;;;;;;;;;;;;;;;;;;2121931;27;890;-76
2021/12/29 20:10:21;;;;;;;;;;;;;;;;;;2122110;27;1096;-76
2021/12/29 20:11:23;;;;;;;;;;;;;;;;;;2121168;28;1510;-76
2021/12/29 20:12:24;;;;;;;;;;;;;;;;;;2120783;28;1573;-76
2021/12/29 20:13:29;;;;;;;;;;;;;;;;;;2120616;28;1838;-77
2021/12/29 20:14:32;;;;;;;;;;;;;;;;;;2121302;28;1906;-76
2021/12/29 20:15:32;;;;;;;;;;;;;;;;;;2121982;27;1777;-77
2021/12/29 20:16:34;;;;;;;;;;;;;;;;;;2120993;28;1353;-74
2021/12/29 20:17:35;;;;;;;;;;;;;;;;;;2121931;28;846;-76
2021/12/29 20:18:37;;;;;;;;;;;;;;;;;;2122286;27;1118;-77
2021/12/29 20:19:39;;;;;;;;;;;;;;;;;;2122183;27;985;-74
2021/12/29 20:20:41;;;;;;;;;;;;;;;;;;2117250;28;1632;-74
2021/12/29 20:21:43;;;;;;;;;;;;;;;;;;2118075;27;1700;-77
2021/12/29 20:22:45;;;;;;;;;;;;;;;;;;2118415;27;1854;-73
2021/12/29 20:23:48;;;;;;;;;;;;;;;;;;2119801;27;1261;-77
2021/12/29 20:24:49;;;;;;;;;;;;;;;;;;2120509;27;1230;-77
2021/12/29 20:25:51;;;;;;;;;;;;;;;;;;2118513;27;1660;-74
2021/12/29 20:26:53;;;;;;;;;;;;;;;;;;2118699;27;1547;-74
2021/12/29 20:27:55;;;;;;;;;;;;;;;;;;2115345;28;1783;-78
2021/12/29 20:28:56;;;;;;;;;;;;;;;;;;2117056;27;1600;-74
2021/12/29 20:29:57;;;;;;;;;;;;;;;;;;2121253;27;996;-77
2021/12/29 20:30:59;;;;;;;;;;;;;;;;;;2121393;28;942;-73
2021/12/29 20:32:02;;;;;;;;;;;;;;;;;;2121537;28;1064;-74
2021/12/29 20:33:03;;;;;;;;;;;;;;;;;;2120117;27;1809;-74
2021/12/29 20:34:06;;;;;;;;;;;;;;;;;;2121931;27;1905;-74
2021/12/29 20:35:08;;;;;;;;;;;;;;;;;;2113027;28;1731;-78
2021/12/29 20:36:10;;;;;;;;;;;;;;;;;;2113531;28;897;-77
2021/12/29 20:37:10;;;;;;;;;;;;;;;;;;2123457;27;1472;-76
2021/12/29 20:38:12;;;;;;;;;;;;;;;;;;2114645;28;1660;-77
2021/12/29 20:39:15;;;;;;;;;;;;;;;;;;2121001;28;1257;-77
2021/12/29 20:40:17;;;;;;;;;;;;;;;;;;2121500;27;996;-75
2021/12/29 20:41:20;;;;;;;;;;;;;;;;;;2121799;27;1433;-74
2021/12/29 20:42:27;;;;;;;;;;;;;;;;;;2122017;27;807;-76
2021/12/29 20:43:31;;;;;;;;;;;;;;;;;;2121508;27;1532;-78
2021/12/29 20:44:33;;;;;;;;;;;;;;;;;;2116398;28;1808;-75
2021/12/29 20:45:34;;;;;;;;;;;;;;;;;;2121704;28;2187;-74
2021/12/29 20:46:36;;;;;;;;;;;;;;;;;;2122005;28;824;-77
2021/12/29 20:47:37;;;;;;;;;;;;;;;;;;2121759;27;957;-76
2021/12/29 20:48:42;;;;;;;;;;;;;;;;;;2121792;27;874;-75
2021/12/29 20:49:44;;;;;;;;;;;;;;;;;;2121669;27;1834;-73
2021/12/29 20:50:45;;;;;;;;;;;;;;;;;;2122995;27;1081;-75
2021/12/29 20:51:48;;;;;;;;;;;;;;;;;;2130433;27;969;-73
2021/12/29 20:52:50;;;;;;;;;;;;;;;;;;2130463;27;919;-79
2021/12/29 20:53:50;;;;;;;;;;;;;;;;;;2129598;27;1198;-76
2021/12/29 20:54:52;;;;;;;;;;;;;;;;;;2125886;27;2411;-74
2021/12/29 20:55:52;;;;;;;;;;;;;;;;;;2121849;27;922;-73
2021/12/29 20:56:56;;;;;;;;;;;;;;;;;;2121957;28;790;-75
2021/12/29 20:57:58;;;;;;;;;;;;;;;;;;2121209;27;1579;-74
2021/12/29 20:58:59;;;;;;;;;;;;;;;;;;2121738;28;1634;-75
2021/12/29 21:00:00;;;;;;;;;;;;;;;;;;2121571;28;1558;-74
2021/12/29 21:01:02;;;;;;;;;;;;;;;;;;2121927;28;882;-74
2021/12/29 21:02:03;;;;;;;;;;;;;;;;;;2121938;27;1138;-75
2021/12/29 21:03:05;;;;;;;;;;;;;;;;;;2121789;28;838;-73
2021/12/29 21:04:07;;;;;;;;;;;;;;;;;;2121474;27;1578;-74
2021/12/29 21:05:10;;;;;;;;;;;;;;;;;;2121815;28;954;-75
2021/12/29 21:06:12;;;;;;;;;;;;;;;;;;2115974;28;806;-77
2021/12/29 21:07:14;;;;;;;;;;;;;;;;;;2116190;28;893;-75
2021/12/29 21:08:16;;;;;;;;;;;;;;;;;;2116199;28;870;-79
2021/12/29 21:09:19;;;;;;;;;;;;;;;;;;2116161;28;1127;-75
2021/12/29 21:10:21;;;;;;;;;;;;;;;;;;2116043;28;944;-78
2021/12/29 21:11:24;;;;;;;;;;;;;;;;;;2116231;28;972;-77
2021/12/29 21:12:26;;;;;;;;;;;;;;;;;;2116072;28;1148;-76
2021/12/29 21:13:34;;;;;;;;;;;;;;;;;;2114499;28;1705;-77
2021/12/29 21:14:35;;;;;;;;;;;;;;;;;;2115865;28;1901;-77
2021/12/29 21:15:38;;;;;;;;;;;;;;;;;;2116084;28;1396;-77
2021/12/29 21:16:40;;;;;;;;;;;;;;;;;;2116050;28;945;-78
2021/12/29 21:17:42;;;;;;;;;;;;;;;;;;2116186;28;980;-73
2021/12/29 21:18:45;;;;;;;;;;;;;;;;;;2115987;28;897;-73
2021/12/29 21:19:45;;;;;;;;;;;;;;;;;;2116134;28;803;-78
2021/12/29 21:20:47;;;;;;;;;;;;;;;;;;2115120;28;950;-76
2021/12/29 21:21:49;;;;;;;;;;;;;;;;;;2119674;27;1089;-77
2021/12/29 21:22:51;;;;;;;;;;;;;;;;;;2124478;27;906;-76
2021/12/29 21:23:52;;;;;;;;;;;;;;;;;;2124626;27;720;-76
2021/12/29 21:24:53;;;;;;;;;;;;;;;;;;2124218;27;881;-75
2021/12/29 21:25:54;;;;;;;;;;;;;;;;;;2124211;27;1393;-76
2021/12/29 21:26:55;;;;;;;;;;;;;;;;;;2114763;28;1672;-76
2021/12/29 21:27:58;;;;;;;;;;;;;;;;;;2116043;28;965;-77
2021/12/29 21:28:59;;;;;;;;;;;;;;;;;;2115814;28;933;-76
2021/12/29 21:30:01;;;;;;;;;;;;;;;;;;2115865;28;885;-78
2021/12/29 21:31:02;;;;;;;;;;;;;;;;;;2115574;28;1560;-78
2021/12/29 21:32:05;;;;;;;;;;;;;;;;;;2115962;28;863;-76
2021/12/29 21:33:11;;;;;;;;;;;;;;;;;;2115848;28;984;-78
2021/12/29 21:34:12;;;;;;;;;;;;;;;;;;2115177;28;1245;-75
2021/12/29 21:35:14;;;;;;;;;;;;;;;;;;2114838;28;1913;-76
2021/12/29 21:36:15;;;;;;;;;;;;;;;;;;2116017;28;878;-75
2021/12/29 21:37:17;;;;;;;;;;;;;;;;;;2115773;28;933;-76
2021/12/29 21:38:19;;;;;;;;;;;;;;;;;;2115882;28;979;-76
2021/12/29 21:39:20;;;;;;;;;;;;;;;;;;2115273;28;1253;-74
2021/12/29 21:40:24;;;;;;;;;;;;;;;;;;2115249;28;1060;-74
2021/12/29 21:41:26;;;;;;;;;;;;;;;;;;2115098;28;2027;-75
2021/12/29 21:42:27;;;;;;;;;;;;;;;;;;2115883;28;1028;-75
2021/12/29 21:43:32;;;;;;;;;;;;;;;;;;2115223;28;1451;-76
2021/12/29 21:44:33;;;;;;;;;;;;;;;;;;2115243;28;897;-75
2021/12/29 21:45:35;;;;;;;;;;;;;;;;;;2115843;28;1057;-76
2021/12/29 21:46:37;;;;;;;;;;;;;;;;;;2115917;28;728;-77
2021/12/29 21:47:37;;;;;;;;;;;;;;;;;;2115776;28;1100;-75
2021/12/29 21:48:39;;;;;;;;;;;;;;;;;;2115900;28;1052;-77
2021/12/29 21:49:40;;;;;;;;;;;;;;;;;;2115751;28;930;-77
2021/12/29 21:50:44;;;;;;;;;;;;;;;;;;2115396;28;1643;-76
2021/12/29 21:51:46;;;;;;;;;;;;;;;;;;2115804;28;1127;-76
2021/12/29 21:52:47;;;;;;;;;;;;;;;;;;2115629;28;1015;-79
2021/12/29 21:53:48;;;;;;;;;;;;;;;;;;2115820;28;803;-75
2021/12/29 21:54:49;;;;;;;;;;;;;;;;;;2115440;28;1910;-75
2021/12/29 21:55:50;;;;;;;;;;;;;;;;;;2115425;28;1591;-74
2021/12/29 21:56:52;;;;;;;;;;;;;;;;;;2115720;28;969;-74
2021/12/29 21:57:53;;;;;;;;;;;;;;;;;;2115641;28;875;-77
2021/12/29 21:58:57;;;;;;;;;;;;;;;;;;2115675;28;965;-75
2021/12/29 21:59:57;;;;;;;;;;;;;;;;;;2115752;28;874;-76
2021/12/29 22:00:59;;;;;;;;;;;;;;;;;;2115338;28;1661;-78
2021/12/29 22:01:59;;;;;;;;;;;;;;;;;;2115758;28;1111;-74
2021/12/29 22:03:01;;;;;;;;;;;;;;;;;;2115586;28;933;-74
2021/12/29 22:04:03;;;;;;;;;;;;;;;;;;2114974;28;792;-79
2021/12/29 22:05:04;;;;;;;;;;;;;;;;;;2114941;28;983;-78
2021/12/29 22:06:06;;;;;;;;;;;;;;;;;;2115714;28;1032;-77
2021/12/29 22:07:07;;;;;;;;;;;;;;;;;;2123133;27;1188;-78
2021/12/29 22:08:09;;;;;;;;;;;;;;;;;;2124430;27;1106;-78
2021/12/29 22:09:10;;;;;;;;;;;;;;;;;;2124247;27;1048;-76
2021/12/29 22:10:13;;;;;;;;;;;;;;;;;;2118070;27;1885;-76
2021/12/29 22:11:15;;;;;;;;;;;;;;;;;;2115792;28;804;-78
2021/12/29 22:12:15;;;;;;;;;;;;;;;;;;2115707;28;791;-75
2021/12/29 22:13:18;;;;;;;;;;;;;;;;;;2115459;28;1060;-79
2021/12/29 22:14:21;;;;;;;;;;;;;;;;;;2115058;28;879;-78
2021/12/29 22:15:23;;;;;;;;;;;;;;;;;;2114570;28;1913;-77
2021/12/29 22:16:24;;;;;;;;;;;;;;;;;;2115672;28;811;-77
2021/12/29 22:17:25;;;;;;;;;;;;;;;;;;2114964;28;1014;-76
2021/12/29 22:18:27;;;;;;;;;;;;;;;;;;2115277;28;1084;-76
2021/12/29 22:19:29;;;;;;;;;;;;;;;;;;2115591;28;882;-78
2021/12/29 22:20:31;;;;;;;;;;;;;;;;;;2115347;28;1917;-77
2021/12/29 22:21:33;;;;;;;;;;;;;;;;;;2114736;28;867;-77
2021/12/29 22:22:33;;;;;;;;;;;;;;;;;;2114919;28;874;-76
2021/12/29 22:23:35;;;;;;;;;;;;;;;;;;2115521;28;1024;-79
2021/12/29 22:24:35;;;;;;;;;;;;;;;;;;2114156;28;1830;-76
2021/12/29 22:25:40;;;;;;;;;;;;;;;;;;2114108;28;1969;-77
2021/12/29 22:26:42;;;;;;;;;;;;;;;;;;2106445;28;2336;-74
2021/12/29 22:27:42;;;;;;;;;;;;;;;;;;2114721;28;937;-77
2021/12/29 22:28:44;;;;;;;;;;;;;;;;;;2114968;27;1145;-73
2021/12/29 22:29:48;;;;;;;;;;;;;;;;;;2115254;27;1658;-78
2021/12/29 22:30:51;;;;;;;;;;;;;;;;;;2114106;28;1052;-78
2021/12/29 22:31:52;;;;;;;;;;;;;;;;;;2114839;28;806;-77
2021/12/29 22:32:54;;;;;;;;;;;;;;;;;;2114419;28;1676;-77
2021/12/29 22:33:55;;;;;;;;;;;;;;;;;;2114418;28;865;-77
2021/12/29 22:34:56;;;;;;;;;;;;;;;;;;2114203;28;1944;-75
2021/12/29 22:36:12;;;;;;;;;;;;;;;;;;2114936;28;906;-76
2021/12/29 22:37:13;;;;;;;;;;;;;;;;;;2114890;28;933;-77
2021/12/29 22:38:15;;;;;;;;;;;;;;;;;;2114734;28;1118;-74
2021/12/29 22:39:15;;;;;;;;;;;;;;;;;;2115106;28;1711;-75
2021/12/29 22:40:19;;;;;;;;;;;;;;;;;;2115395;28;1073;-74
2021/12/29 22:41:20;;;;;;;;;;;;;;;;;;2115033;28;1940;-76
2021/12/29 22:42:21;;;;;;;;;;;;;;;;;;2115622;28;949;-74
2021/12/29 22:43:24;;;;;;;;;;;;;;;;;;2115294;28;937;-75
2021/12/29 22:44:25;;;;;;;;;;;;;;;;;;2114450;28;1598;-75
2021/12/29 22:45:30;;;;;;;;;;;;;;;;;;2113175;28;2381;-75
2021/12/29 22:46:32;;;;;;;;;;;;;;;;;;2114259;28;900;-75
2021/12/29 22:47:34;;;;;;;;;;;;;;;;;;2113991;28;1648;-75
2021/12/29 22:48:35;;;;;;;;;;;;;;;;;;2114763;28;941;-75
2021/12/29 22:49:37;;;;;;;;;;;;;;;;;;2115160;28;905;-76
2021/12/29 22:50:40;;;;;;;;;;;;;;;;;;2114845;28;1136;-75
2021/12/29 22:51:41;;;;;;;;;;;;;;;;;;2115056;27;1097;-77
2021/12/29 22:52:43;;;;;;;;;;;;;;;;;;2114892;28;973;-76
2021/12/29 22:53:44;;;;;;;;;;;;;;;;;;2113239;28;1521;-77
2021/12/29 22:54:45;;;;;;;;;;;;;;;;;;2113537;28;1232;-76
2021/12/29 22:55:47;;;;;;;;;;;;;;;;;;2114333;28;1918;-76
2021/12/29 22:56:48;;;;;;;;;;;;;;;;;;2112149;28;1309;-74
2021/12/29 22:57:50;;;;;;;;;;;;;;;;;;2113889;28;1325;-75
2021/12/29 22:58:51;;;;;;;;;;;;;;;;;;2114370;28;1451;-74
2021/12/29 22:59:52;;;;;;;;;;;;;;;;;;2114250;28;1482;-75
2021/12/29 23:00:57;;;;;;;;;;;;;;;;;;2114343;28;1351;-78
2021/12/29 23:01:58;;;;;;;;;;;;;;;;;;2114152;28;1558;-75
2021/12/29 23:03:00;;;;;;;;;;;;;;;;;;2111546;28;1262;-78
2021/12/29 23:04:01;;;;;;;;;;;;;;;;;;2113502;28;1265;-74
2021/12/29 23:05:02;;;;;;;;;;;;;;;;;;2105272;28;1651;-77
2021/12/29 23:06:05;;;;;;;;;;;;;;;;;;2114051;28;1329;-75
2021/12/29 23:07:05;;;;;;;;;;;;;;;;;;2113426;28;1703;-76
2021/12/29 23:08:08;;;;;;;;;;;;;;;;;;2112521;28;1508;-75
2021/12/29 23:09:10;;;;;;;;;;;;;;;;;;2113639;28;1704;-75
2021/12/29 23:10:11;;;;;;;;;;;;;;;;;;2116002;27;1556;-75
2021/12/29 23:11:14;;;;;;;;;;;;;;;;;;2114514;28;1307;-77
2021/12/29 23:12:15;;;;;;;;;;;;;;;;;;2115110;28;1404;-75
2021/12/29 23:13:16;;;;;;;;;;;;;;;;;;2115062;28;1325;-76
2021/12/29 23:14:17;;;;;;;;;;;;;;;;;;2115026;28;1517;-74
2021/12/29 23:15:21;;;;;;;;;;;;;;;;;;2112399;28;1910;-77
2021/12/29 23:16:26;;;;;;;;;;;;;;;;;;2115403;28;949;-77
2021/12/29 23:17:27;;;;;;;;;;;;;;;;;;2115251;28;1136;-78
2021/12/29 23:18:30;;;;;;;;;;;;;;;;;;2115442;28;874;-76
2021/12/29 23:19:34;;;;;;;;;;;;;;;;;;2115447;28;897;-77
2021/12/29 23:20:36;;;;;;;;;;;;;;;;;;2115302;28;956;-75
2021/12/29 23:21:39;;;;;;;;;;;;;;;;;;2110355;28;906;-78
2021/12/29 23:22:48;;;;;;;;;;;;;;;;;;2107148;28;846;-75
2021/12/29 23:23:55;;;;;;;;;;;;;;;;;;2106703;28;914;-77
2021/12/29 23:24:55;;;;;;;;;;;;;;;;;;2107178;28;1274;-74
2021/12/29 23:26:09;;;;;;;;;;;;;;;;;;2106761;28;850;-77
2021/12/29 23:28:34;;;;;;;;;;;;;;;;;;2106775;28;799;-78
2021/12/29 23:29:35;;;;;;;;;;;;;;;;;;2106087;28;956;-75
2021/12/29 23:30:37;;;;;;;;;;;;;;;;;;2106136;28;791;-78
2021/12/29 23:31:40;;;;;;;;;;;;;;;;;;2106819;28;845;-77
2021/12/29 23:32:41;;;;;;;;;;;;;;;;;;2106693;28;897;-77
2021/12/29 23:33:44;;;;;;;;;;;;;;;;;;2106883;28;924;-74
2021/12/29 23:34:48;;;;;;;;;;;;;;;;;;2106707;28;885;-74
2021/12/29 23:35:50;;;;;;;;;;;;;;;;;;2105943;28;1985;-77
2021/12/29 23:36:52;;;;;;;;;;;;;;;;;;2108539;27;1509;-76
2021/12/29 23:37:56;;;;;;;;;;;;;;;;;;2123161;27;988;-78
2021/12/29 23:39:00;;;;;;;;;;;;;;;;;;2114222;27;875;-77
2021/12/29 23:40:01;;;;;;;;;;;;;;;;;;2114398;28;1585;-77
2021/12/29 23:41:02;;;;;;;;;;;;;;;;;;2114463;28;987;-75
2021/12/29 23:42:04;;;;;;;;;;;;;;;;;;2114480;28;1320;-76
2021/12/29 23:43:08;;;;;;;;;;;;;;;;;;2115067;28;1592;-79
2021/12/29 23:44:10;;;;;;;;;;;;;;;;;;2114553;28;1277;-75
2021/12/29 23:45:11;;;;;;;;;;;;;;;;;;2113953;28;1416;-75
2021/12/29 23:46:13;;;;;;;;;;;;;;;;;;2114335;28;1072;-75
2021/12/29 23:47:18;;;;;;;;;;;;;;;;;;2112930;28;1315;-78
2021/12/29 23:48:20;;;;;;;;;;;;;;;;;;2114274;28;919;-76
2021/12/29 23:49:21;;;;;;;;;;;;;;;;;;2110112;28;1697;-74
2021/12/29 23:50:23;;;;;;;;;;;;;;;;;;2105961;28;905;-74
2021/12/29 23:51:23;;;;;;;;;;;;;;;;;;2113565;28;1586;-77
2021/12/29 23:52:25;;;;;;;;;;;;;;;;;;2114302;28;850;-77
2021/12/29 23:53:26;;;;;;;;;;;;;;;;;;2114130;28;903;-78
2021/12/29 23:54:32;;;;;;;;;;;;;;;;;;2113355;28;1321;-77
2021/12/29 23:55:32;;;;;;;;;;;;;;;;;;2097552;28;1909;-75
2021/12/29 23:56:37;;;;;;;;;;;;;;;;;;2105247;28;952;-77
2021/12/29 23:57:37;;;;;;;;;;;;;;;;;;2105726;28;910;-75
2021/12/29 23:58:39;;;;;;;;;;;;;;;;;;2105889;28;906;-76
2021/12/29 23:59:42;;;;;;;;;;;;;;;;;;2105907;28;806;-75
